createdAt,value
2019-01-20T00:01:37.496Z,-2.60
2019-01-20T00:04:12.636Z,-2.70
2019-01-20T00:06:47.741Z,-2.70
2019-01-20T00:09:22.613Z,-2.70
2019-01-20T00:11:59.109Z,-2.80
2019-01-20T00:14:33.989Z,-2.80
2019-01-20T00:17:09.009Z,-2.90
2019-01-20T00:19:43.879Z,-2.90
2019-01-20T00:22:19.705Z,-2.90
2019-01-20T00:24:55.582Z,-2.90
2019-01-20T00:27:30.736Z,-2.90
2019-01-20T00:30:09.082Z,-2.90
2019-01-20T00:32:43.948Z,-3.00
2019-01-20T00:35:18.878Z,-2.90
2019-01-20T00:37:53.733Z,-2.90
2019-01-20T00:40:28.921Z,-2.90
2019-01-20T00:43:03.762Z,-2.90
2019-01-20T00:45:39.134Z,-2.80
2019-01-20T00:48:14.105Z,-2.80
2019-01-20T00:50:49.005Z,-2.90
2019-01-20T00:53:23.862Z,-2.90
2019-01-20T00:55:59.063Z,-2.90
2019-01-20T00:58:33.938Z,-2.90
2019-01-20T01:01:08.798Z,-2.90
2019-01-20T01:03:44.042Z,-2.90
2019-01-20T01:06:19.488Z,-2.90
2019-01-20T01:08:54.597Z,-3.00
2019-01-20T01:11:31.667Z,-3.00
2019-01-20T01:14:06.029Z,-3.00
2019-01-20T01:16:42.537Z,-3.10
2019-01-20T01:19:20.980Z,-3.10
2019-01-20T01:21:56.485Z,-3.10
2019-01-20T01:24:32.648Z,-3.10
2019-01-20T01:27:07.878Z,-3.10
2019-01-20T01:29:42.739Z,-3.20
2019-01-20T01:32:17.960Z,-3.20
2019-01-20T01:34:53.116Z,-3.30
2019-01-20T01:37:27.983Z,-3.30
2019-01-20T01:40:02.917Z,-3.30
2019-01-20T01:42:37.789Z,-3.20
2019-01-20T01:45:15.384Z,-3.30
2019-01-20T01:47:50.622Z,-3.30
2019-01-20T01:50:27.173Z,-3.30
2019-01-20T01:53:02.024Z,-3.30
2019-01-20T01:55:37.262Z,-3.30
2019-01-20T01:58:12.382Z,-3.30
2019-01-20T02:00:48.561Z,-3.30
2019-01-20T02:03:25.746Z,-3.40
2019-01-20T02:06:00.581Z,-3.30
2019-01-20T02:08:35.823Z,-3.40
2019-01-20T02:11:11.233Z,-3.30
2019-01-20T02:13:46.107Z,-3.40
2019-01-20T02:16:21.236Z,-3.40
2019-01-20T02:18:56.117Z,-3.50
2019-01-20T02:21:30.969Z,-3.40
2019-01-20T02:24:05.822Z,-3.40
2019-01-20T02:26:40.718Z,-3.50
2019-01-20T02:29:15.903Z,-3.50
2019-01-20T02:31:50.801Z,-3.50
2019-01-20T02:34:27.949Z,-3.50
2019-01-20T02:37:03.158Z,-3.60
2019-01-20T02:39:38.050Z,-3.60
2019-01-20T02:42:13.805Z,-3.70
2019-01-20T02:44:49.077Z,-3.70
2019-01-20T02:47:24.945Z,-3.70
2019-01-20T02:49:59.794Z,-3.70
2019-01-20T02:52:35.885Z,-3.70
2019-01-20T02:55:10.775Z,-3.70
2019-01-20T02:57:47.143Z,-3.70
2019-01-20T03:00:23.472Z,-3.70
2019-01-20T03:02:58.316Z,-3.70
2019-01-20T03:05:33.481Z,-3.70
2019-01-20T03:08:09.309Z,-3.70
2019-01-20T03:10:44.174Z,-3.60
2019-01-20T03:13:19.009Z,-3.70
2019-01-20T03:15:54.436Z,-3.70
2019-01-20T03:18:29.693Z,-3.70
2019-01-20T03:21:04.761Z,-3.70
2019-01-20T03:23:40.660Z,-3.70
2019-01-20T03:26:15.509Z,-3.70
2019-01-20T03:28:50.370Z,-3.80
2019-01-20T03:31:25.226Z,-3.90
2019-01-20T03:34:00.063Z,-3.80
2019-01-20T03:36:34.919Z,-3.90
2019-01-20T03:39:10.042Z,-3.80
2019-01-20T03:41:45.385Z,-3.90
2019-01-20T03:44:20.246Z,-3.80
2019-01-20T03:46:55.564Z,-3.90
2019-01-20T03:49:30.399Z,-3.80
2019-01-20T03:52:05.629Z,-3.90
2019-01-20T03:54:40.587Z,-3.90
2019-01-20T03:57:16.733Z,-3.90
2019-01-20T03:59:52.536Z,-3.90
2019-01-20T04:02:27.818Z,-4.00
2019-01-20T04:05:02.675Z,-4.00
2019-01-20T04:07:39.519Z,-4.00
2019-01-20T04:10:16.621Z,-3.90
2019-01-20T04:12:52.728Z,-4.00
2019-01-20T04:15:27.932Z,-4.00
2019-01-20T04:18:02.804Z,-4.00
2019-01-20T04:20:37.680Z,-4.00
2019-01-20T04:23:12.530Z,-4.00
2019-01-20T04:25:48.084Z,-3.90
2019-01-20T04:28:23.211Z,-3.90
2019-01-20T04:30:58.069Z,-4.00
2019-01-20T04:33:32.909Z,-4.00
2019-01-20T04:36:08.061Z,-4.00
2019-01-20T04:38:43.186Z,-4.00
2019-01-20T04:41:18.308Z,-4.00
2019-01-20T04:43:53.166Z,-4.00
2019-01-20T04:46:28.030Z,-4.00
2019-01-20T04:49:03.901Z,-4.00
2019-01-20T04:51:40.177Z,-4.10
2019-01-20T04:54:15.031Z,-4.10
2019-01-20T04:56:49.914Z,-4.10
2019-01-20T04:59:25.680Z,-4.20
2019-01-20T05:02:00.785Z,-4.20
2019-01-20T05:04:36.580Z,-4.20
2019-01-20T05:07:11.508Z,-4.20
2019-01-20T05:09:46.354Z,-4.20
2019-01-20T05:12:21.481Z,-4.30
2019-01-20T05:14:56.334Z,-4.30
2019-01-20T05:17:31.241Z,-4.30
2019-01-20T05:20:08.870Z,-4.30
2019-01-20T05:22:43.999Z,-4.40
2019-01-20T05:25:19.012Z,-4.40
2019-01-20T05:27:53.887Z,-4.30
2019-01-20T05:30:28.767Z,-4.40
2019-01-20T05:33:03.951Z,-4.40
2019-01-20T05:35:38.800Z,-4.40
2019-01-20T05:38:13.919Z,-4.40
2019-01-20T05:40:49.714Z,-4.40
2019-01-20T05:43:24.857Z,-4.40
2019-01-20T05:46:00.063Z,-4.40
2019-01-20T05:48:34.920Z,-4.30
2019-01-20T05:51:09.791Z,-4.30
2019-01-20T05:53:44.799Z,-4.30
2019-01-20T05:56:19.662Z,-4.40
2019-01-20T05:58:55.429Z,-4.40
2019-01-20T06:01:30.654Z,-4.40
2019-01-20T06:04:05.786Z,-4.40
2019-01-20T06:06:40.895Z,-4.50
2019-01-20T06:09:16.246Z,-4.50
2019-01-20T06:11:51.101Z,-4.50
2019-01-20T06:14:26.052Z,-4.50
2019-01-20T06:17:00.952Z,-4.50
2019-01-20T06:19:35.861Z,-4.50
2019-01-20T06:22:11.590Z,-4.60
2019-01-20T06:24:46.702Z,-4.60
2019-01-20T06:27:23.223Z,-4.60
2019-01-20T06:29:58.349Z,-4.60
2019-01-20T06:32:33.933Z,-4.70
2019-01-20T06:35:08.778Z,-4.70
2019-01-20T06:37:43.839Z,-4.70
2019-01-20T06:40:18.694Z,-4.70
2019-01-20T06:43:01.228Z,-4.70
2019-01-20T06:45:31.121Z,-4.80
2019-01-20T06:48:06.028Z,-4.70
2019-01-20T06:50:40.945Z,-4.70
2019-01-20T06:53:18.481Z,-4.80
2019-01-20T06:55:53.349Z,-4.80
2019-01-20T06:58:28.211Z,-4.70
2019-01-20T07:01:03.075Z,-4.70
2019-01-20T07:03:37.925Z,-4.80
2019-01-20T07:06:13.143Z,-4.70
2019-01-20T07:08:48.254Z,-4.80
2019-01-20T07:11:23.450Z,-4.80
2019-01-20T07:13:58.898Z,-4.80
2019-01-20T07:16:33.765Z,-4.80
2019-01-20T07:19:08.887Z,-4.80
2019-01-20T07:21:44.071Z,-4.80
2019-01-20T07:24:18.947Z,-4.80
2019-01-20T07:26:54.265Z,-4.80
2019-01-20T07:29:29.607Z,-4.80
2019-01-20T07:32:04.860Z,-4.70
2019-01-20T07:34:39.792Z,-4.80
2019-01-20T07:37:14.657Z,-4.70
2019-01-20T07:39:50.414Z,-4.70
2019-01-20T07:42:25.261Z,-4.70
2019-01-20T07:45:00.388Z,-4.60
2019-01-20T07:47:35.420Z,-4.60
2019-01-20T07:50:16.633Z,-4.60
2019-01-20T07:52:51.491Z,-4.50
2019-01-20T07:55:26.587Z,-4.50
2019-01-20T07:58:01.853Z,-4.50
2019-01-20T08:00:36.978Z,-4.50
2019-01-20T08:03:11.841Z,-4.40
2019-01-20T08:05:46.942Z,-4.40
2019-01-20T08:08:22.138Z,-4.30
2019-01-20T08:10:57.250Z,-4.30
2019-01-20T08:13:33.748Z,-4.30
2019-01-20T08:16:08.637Z,-4.30
2019-01-20T08:18:44.942Z,-4.20
2019-01-20T08:21:19.864Z,-4.20
2019-01-20T08:23:55.957Z,-4.10
2019-01-20T08:26:30.811Z,-4.10
2019-01-20T08:29:05.940Z,-4.10
2019-01-20T08:31:40.935Z,-4.00
2019-01-20T08:34:15.813Z,-4.00
2019-01-20T08:36:51.642Z,-4.00
2019-01-20T08:39:27.171Z,-3.90
2019-01-20T08:42:02.341Z,-3.90
2019-01-20T08:44:37.286Z,-3.90
2019-01-20T08:47:14.179Z,-3.80
2019-01-20T08:49:49.358Z,-3.70
2019-01-20T08:52:24.230Z,-3.70
2019-01-20T08:54:59.067Z,-3.60
2019-01-20T08:57:34.197Z,-3.50
2019-01-20T09:00:12.327Z,-3.50
2019-01-20T09:02:47.444Z,-3.50
2019-01-20T09:05:24.237Z,-3.50
2019-01-20T09:07:59.343Z,-3.40
2019-01-20T09:10:34.465Z,-3.30
2019-01-20T09:13:10.197Z,-3.30
2019-01-20T09:15:47.375Z,-3.10
2019-01-20T09:18:22.309Z,-3.20
2019-01-20T09:20:57.498Z,-3.10
2019-01-20T09:23:32.374Z,-3.10
2019-01-20T09:26:08.191Z,-3.00
2019-01-20T09:28:44.143Z,-3.00
2019-01-20T09:31:22.133Z,-2.90
2019-01-20T09:33:58.301Z,-2.80
2019-01-20T09:36:35.069Z,-2.80
2019-01-20T09:39:11.815Z,-2.70
2019-01-20T09:41:46.966Z,-2.70
2019-01-20T09:44:22.353Z,-2.60
2019-01-20T09:46:59.490Z,-2.60
2019-01-20T09:49:34.602Z,-2.50
2019-01-20T09:52:09.466Z,-2.50
2019-01-20T09:54:44.312Z,-2.40
2019-01-20T09:57:20.090Z,-2.40
2019-01-20T09:59:54.947Z,-2.30
2019-01-20T10:02:30.106Z,-2.20
2019-01-20T10:05:08.174Z,-2.20
2019-01-20T10:07:44.565Z,-2.20
2019-01-20T10:10:20.161Z,-2.10
2019-01-20T10:12:55.089Z,-2.00
2019-01-20T10:15:30.968Z,-2.10
2019-01-20T10:18:06.146Z,-2.00
2019-01-20T10:20:41.075Z,-1.90
2019-01-20T10:23:16.301Z,-1.90
2019-01-20T10:25:51.278Z,-1.90
2019-01-20T10:28:28.062Z,-1.80
2019-01-20T10:31:03.212Z,-1.70
2019-01-20T10:33:41.749Z,-1.70
2019-01-20T10:36:17.656Z,-1.70
2019-01-20T10:38:52.811Z,-1.70
2019-01-20T10:41:29.822Z,-1.60
2019-01-20T10:44:04.772Z,-1.60
2019-01-20T10:46:39.963Z,-1.40
2019-01-20T10:49:15.137Z,-1.40
2019-01-20T10:51:50.094Z,-1.40
2019-01-20T10:54:25.951Z,-1.30
2019-01-20T10:59:47.946Z,-1.20
2019-01-20T11:02:23.160Z,-1.10
2019-01-20T11:04:58.030Z,-1.10
2019-01-20T11:07:33.158Z,-1.00
2019-01-20T11:10:11.086Z,-1.00
2019-01-20T11:12:46.302Z,-1.00
2019-01-20T11:15:23.041Z,-0.90
2019-01-20T11:17:58.161Z,-0.80
2019-01-20T11:20:33.020Z,-0.80
2019-01-20T11:23:08.457Z,-0.70
2019-01-20T11:25:43.318Z,-0.70
2019-01-20T11:28:18.471Z,-0.60
2019-01-20T11:30:53.342Z,-0.60
2019-01-20T11:33:28.241Z,-0.60
2019-01-20T11:36:03.113Z,-0.60
2019-01-20T11:38:37.955Z,-0.60
2019-01-20T11:41:12.808Z,-0.50
2019-01-20T11:43:47.647Z,-0.50
2019-01-20T11:46:22.985Z,-0.40
2019-01-20T11:48:57.833Z,-0.40
2019-01-20T11:51:32.697Z,-0.30
2019-01-20T11:54:07.638Z,-0.20
2019-01-20T11:56:42.832Z,-0.20
2019-01-20T11:59:17.665Z,-0.20
2019-01-20T12:01:52.559Z,-0.20
2019-01-20T12:04:27.491Z,-0.20
2019-01-20T12:07:02.623Z,-0.20
2019-01-20T12:09:37.469Z,-0.20
2019-01-20T12:12:12.608Z,-0.10
2019-01-20T12:14:47.470Z,-0.10
2019-01-20T12:17:22.318Z,-0.10
2019-01-20T12:19:57.463Z,-0.10
2019-01-20T12:22:32.662Z,-0.10
2019-01-20T12:25:13.603Z,0.00
2019-01-20T12:27:48.705Z,0.00
2019-01-20T12:30:29.333Z,0.00
2019-01-20T12:33:04.268Z,0.00
2019-01-20T12:35:40.045Z,0.10
2019-01-20T12:38:15.239Z,0.20
2019-01-20T12:40:50.361Z,0.10
2019-01-20T12:43:25.532Z,0.10
2019-01-20T12:46:00.509Z,0.10
2019-01-20T12:48:35.632Z,0.10
2019-01-20T12:51:12.396Z,0.10
2019-01-20T12:53:47.048Z,0.10
2019-01-20T12:56:22.250Z,0.10
2019-01-20T12:58:58.319Z,0.20
2019-01-20T13:01:33.415Z,0.20
2019-01-20T13:04:08.380Z,0.20
2019-01-20T13:06:43.540Z,0.20
2019-01-20T13:09:18.395Z,0.30
2019-01-20T13:11:54.198Z,0.20
2019-01-20T13:14:29.884Z,0.20
2019-01-20T13:17:05.030Z,0.30
2019-01-20T13:19:39.874Z,0.20
2019-01-20T13:22:14.699Z,0.30
2019-01-20T13:24:49.545Z,0.30
2019-01-20T13:27:26.373Z,0.30
2019-01-20T13:30:01.348Z,0.20
2019-01-20T13:32:36.492Z,0.20
2019-01-20T13:35:11.839Z,0.20
2019-01-20T13:37:49.599Z,0.20
2019-01-20T13:40:34.338Z,0.20
2019-01-20T13:43:09.241Z,0.10
2019-01-20T13:45:44.439Z,0.10
2019-01-20T13:48:19.337Z,0.20
2019-01-20T13:50:54.700Z,0.30
2019-01-20T13:53:30.054Z,0.50
2019-01-20T13:56:05.601Z,0.60
2019-01-20T13:58:40.953Z,0.70
2019-01-20T14:01:16.195Z,0.60
2019-01-20T14:03:51.064Z,0.50
2019-01-20T14:06:26.349Z,0.50
2019-01-20T14:09:01.270Z,0.40
2019-01-20T14:11:37.723Z,0.40
2019-01-20T14:14:13.080Z,0.40
2019-01-20T14:16:48.210Z,0.40
2019-01-20T14:19:23.149Z,0.20
2019-01-20T14:21:58.282Z,0.10
2019-01-20T14:24:34.082Z,0.00
2019-01-20T14:27:10.298Z,-0.20
2019-01-20T14:29:45.226Z,-0.30
2019-01-20T14:32:20.461Z,-0.40
2019-01-20T14:34:55.306Z,-0.60
2019-01-20T14:37:30.547Z,-0.60
2019-01-20T14:40:08.719Z,-0.70
2019-01-20T14:42:43.886Z,-0.80
2019-01-20T14:45:19.950Z,-0.80
2019-01-20T14:47:55.098Z,-0.90
2019-01-20T14:50:30.231Z,-0.90
2019-01-20T14:53:05.152Z,-0.80
2019-01-20T14:55:41.232Z,-0.90
2019-01-20T14:58:16.351Z,-0.90
2019-01-20T15:00:51.508Z,-0.80
2019-01-20T15:03:27.455Z,-0.90
2019-01-20T15:06:02.323Z,-0.80
2019-01-20T15:08:37.533Z,-0.90
2019-01-20T15:11:12.394Z,-0.90
2019-01-20T15:13:47.246Z,-1.00
2019-01-20T15:16:22.415Z,-1.00
2019-01-20T15:18:57.661Z,-1.10
2019-01-20T15:21:33.488Z,-1.20
2019-01-20T15:24:08.641Z,-1.20
2019-01-20T15:26:43.895Z,-1.30
2019-01-20T15:29:19.034Z,-1.30
2019-01-20T15:31:54.170Z,-1.30
2019-01-20T15:34:29.308Z,-1.40
2019-01-20T15:37:04.193Z,-1.40
2019-01-20T15:39:39.046Z,-1.50
2019-01-20T15:42:14.885Z,-1.50
2019-01-20T15:44:49.742Z,-1.40
2019-01-20T15:47:24.657Z,-1.40
2019-01-20T15:50:00.506Z,-1.40
2019-01-20T15:52:35.782Z,-1.40
2019-01-20T15:55:11.238Z,-1.40
2019-01-20T15:57:46.176Z,-1.30
2019-01-20T16:00:26.291Z,-1.30
2019-01-20T16:03:01.553Z,-1.30
2019-01-20T16:05:36.705Z,-1.30
2019-01-20T16:08:12.559Z,-1.20
2019-01-20T16:10:47.492Z,-1.30
2019-01-20T16:13:22.487Z,-1.30
2019-01-20T16:15:57.395Z,-1.40
2019-01-20T16:18:33.574Z,-1.40
2019-01-20T16:21:09.585Z,-1.40
2019-01-20T16:23:46.634Z,-1.40
2019-01-20T16:26:22.248Z,-1.30
2019-01-20T16:28:57.222Z,-1.30
2019-01-20T16:31:32.104Z,-1.40
2019-01-20T16:34:07.348Z,-1.40
2019-01-20T16:36:43.269Z,-1.40
2019-01-20T16:39:18.238Z,-1.40
2019-01-20T16:41:53.099Z,-1.60
2019-01-20T16:44:28.284Z,-1.50
2019-01-20T16:47:03.201Z,-1.60
2019-01-20T16:49:38.060Z,-1.60
2019-01-20T16:52:13.031Z,-1.60
2019-01-20T16:54:47.964Z,-1.70
2019-01-20T16:57:23.147Z,-1.70
2019-01-20T16:59:58.030Z,-1.80
2019-01-20T17:02:33.147Z,-1.70
2019-01-20T17:05:09.814Z,-1.80
2019-01-20T17:07:45.083Z,-1.70
2019-01-20T17:10:26.185Z,-1.70
2019-01-20T17:13:01.404Z,-1.80
2019-01-20T17:15:41.945Z,-1.70
2019-01-20T17:18:18.343Z,-1.70
2019-01-20T17:20:53.465Z,-1.70
2019-01-20T17:23:28.323Z,-1.80
2019-01-20T17:26:03.485Z,-1.70
2019-01-20T17:28:38.612Z,-1.70
2019-01-20T17:31:13.643Z,-1.70
2019-01-20T17:33:48.606Z,-1.70
2019-01-20T17:36:23.470Z,-1.80
2019-01-20T17:38:59.643Z,-1.80
2019-01-20T17:41:34.926Z,-1.70
2019-01-20T17:44:10.183Z,-1.70
2019-01-20T17:46:45.199Z,-1.70
2019-01-20T17:49:20.166Z,-1.80
2019-01-20T17:51:55.392Z,-1.80
2019-01-20T17:54:30.826Z,-1.90
2019-01-20T17:57:07.826Z,-1.90
2019-01-20T17:59:48.017Z,-1.90
2019-01-20T18:02:23.301Z,-2.00
2019-01-20T18:04:58.452Z,-2.00
2019-01-20T18:07:33.559Z,-2.10
2019-01-20T18:10:11.530Z,-2.10
2019-01-20T18:12:47.238Z,-2.10
2019-01-20T18:15:25.831Z,-2.20
2019-01-20T18:18:01.100Z,-2.20
2019-01-20T18:20:37.076Z,-2.20
2019-01-20T18:23:13.267Z,-2.10
2019-01-20T18:25:48.216Z,-2.20
2019-01-20T18:28:24.139Z,-2.20
2019-01-20T18:30:59.059Z,-2.20
2019-01-20T18:33:35.711Z,-2.20
2019-01-20T18:36:10.615Z,-2.20
2019-01-20T18:38:45.760Z,-2.20
2019-01-20T18:41:21.012Z,-2.20
2019-01-20T18:43:58.105Z,-2.20
2019-01-20T18:46:33.356Z,-2.20
2019-01-20T18:49:08.943Z,-2.20
2019-01-20T18:51:43.943Z,-2.20
2019-01-20T18:54:19.083Z,-2.20
2019-01-20T18:56:54.010Z,-2.30
2019-01-20T18:59:30.030Z,-2.20
2019-01-20T19:02:06.212Z,-2.30
2019-01-20T19:04:42.344Z,-2.30
2019-01-20T19:07:19.407Z,-2.20
2019-01-20T19:09:56.564Z,-2.20
2019-01-20T19:12:52.009Z,-2.20
2019-01-20T19:15:35.138Z,-2.10
2019-01-20T19:18:18.828Z,-2.10
2019-01-20T19:20:49.601Z,-2.10
2019-01-20T19:23:30.060Z,-2.10
2019-01-20T19:26:07.548Z,-2.00
2019-01-20T19:28:42.719Z,-2.00
2019-01-20T19:31:19.601Z,-2.00
2019-01-20T19:33:54.995Z,-2.00
2019-01-20T19:36:29.917Z,-2.10
2019-01-20T19:39:07.411Z,-2.00
2019-01-20T19:41:42.565Z,-2.00
2019-01-20T19:44:17.989Z,-2.10
2019-01-20T19:46:53.206Z,-2.00
2019-01-20T19:49:29.134Z,-2.00
2019-01-20T19:52:04.125Z,-2.00
2019-01-20T19:54:39.429Z,-2.00
2019-01-20T19:57:14.671Z,-1.90
2019-01-20T19:59:52.008Z,-1.90
2019-01-20T20:02:29.622Z,-1.80
2019-01-20T20:05:07.955Z,-1.90
2019-01-20T20:07:43.851Z,-1.90
2019-01-20T20:10:25.726Z,-1.90
2019-01-20T20:13:03.780Z,-1.90
2019-01-20T20:15:38.649Z,-1.90
2019-01-20T20:18:13.525Z,-2.00
2019-01-20T20:20:51.343Z,-2.20
2019-01-20T20:23:28.823Z,-2.20
2019-01-20T20:26:04.938Z,-2.20
2019-01-20T20:28:40.201Z,-2.30
2019-01-20T20:31:15.575Z,-2.20
2019-01-20T20:33:50.715Z,-2.20
2019-01-20T20:36:27.002Z,-2.20
2019-01-20T20:39:01.843Z,-2.20
2019-01-20T20:41:39.328Z,-2.20
2019-01-20T20:44:14.623Z,-2.10
2019-01-20T20:46:50.585Z,-2.10
2019-01-20T20:49:26.552Z,-2.10
2019-01-20T20:52:02.571Z,-2.20
2019-01-20T20:54:39.166Z,-2.20
2019-01-20T20:57:14.173Z,-2.30
2019-01-20T20:59:51.098Z,-2.30
2019-01-20T21:02:26.348Z,-2.40
2019-01-20T21:05:01.224Z,-2.40
2019-01-20T21:07:36.482Z,-2.40
2019-01-20T21:10:16.502Z,-2.40
2019-01-20T21:12:51.971Z,-2.40
2019-01-20T21:15:28.418Z,-2.30
2019-01-20T21:18:03.293Z,-2.30
2019-01-20T21:20:38.273Z,-2.30
2019-01-20T21:23:13.169Z,-2.30
2019-01-20T21:25:48.095Z,-2.30
2019-01-20T21:28:23.084Z,-2.30
2019-01-20T21:30:58.026Z,-2.30
2019-01-20T21:33:33.055Z,-2.30
2019-01-20T21:36:08.014Z,-2.40
2019-01-20T21:38:43.082Z,-2.40
2019-01-20T21:41:18.020Z,-2.30
2019-01-20T21:43:53.279Z,-2.30
2019-01-20T21:46:28.146Z,-2.30
2019-01-20T21:49:03.352Z,-2.40
2019-01-20T21:51:38.474Z,-2.40
2019-01-20T21:54:14.277Z,-2.40
2019-01-20T21:56:49.401Z,-2.50
2019-01-20T21:59:24.312Z,-2.50
2019-01-20T22:02:01.390Z,-2.60
2019-01-20T22:04:37.521Z,-2.60
2019-01-20T22:07:12.445Z,-2.60
2019-01-20T22:09:48.543Z,-2.60
2019-01-20T22:12:23.407Z,-2.60
2019-01-20T22:14:58.528Z,-2.60
2019-01-20T22:17:33.688Z,-2.60
2019-01-20T22:20:14.561Z,-2.50
2019-01-20T22:22:50.131Z,-2.40
2019-01-20T22:25:25.989Z,-2.40
2019-01-20T22:28:01.197Z,-2.30
2019-01-20T22:30:37.051Z,-2.30
2019-01-20T22:33:12.289Z,-2.40
2019-01-20T22:35:47.443Z,-2.40
2019-01-20T22:38:22.396Z,-2.40
2019-01-20T22:40:57.315Z,-2.40
2019-01-20T22:43:32.225Z,-2.40
2019-01-20T22:46:07.371Z,-2.40
2019-01-20T22:48:42.514Z,-2.30
2019-01-20T22:51:17.750Z,-2.40
2019-01-20T22:53:52.888Z,-2.40
2019-01-20T22:56:27.779Z,-2.30
2019-01-20T22:59:02.625Z,-2.20
2019-01-20T23:01:38.015Z,-2.30
2019-01-20T23:04:13.129Z,-2.20
2019-01-20T23:06:49.050Z,-2.20
2019-01-20T23:09:25.353Z,-2.20
2019-01-20T23:12:01.262Z,-2.20
2019-01-20T23:14:36.213Z,-2.30
2019-01-20T23:17:11.150Z,-2.30
2019-01-20T23:19:46.007Z,-2.30
2019-01-20T23:22:21.173Z,-2.30
2019-01-20T23:24:56.307Z,-2.20
2019-01-20T23:27:32.378Z,-2.20
2019-01-20T23:30:10.802Z,-2.20
2019-01-20T23:32:45.713Z,-2.20
2019-01-20T23:35:20.553Z,-2.20
2019-01-20T23:37:57.296Z,-2.10
2019-01-20T23:40:32.136Z,-2.10
2019-01-20T23:43:10.431Z,-2.10
2019-01-20T23:45:43.679Z,-2.10
2019-01-20T23:48:19.510Z,-2.00
2019-01-20T23:50:54.373Z,-2.00
2019-01-20T23:53:29.251Z,-2.00
2019-01-20T23:56:06.170Z,-2.00
2019-01-20T23:58:41.360Z,-2.00
